sensor_id;sensor_type;location;lat;lon;timestamp;P1;durP1;ratioP1;P2;durP2;ratioP2
20669;SDS011;10494;50.868;4.180;2023-04-15T00:01:08;4.20;;;3.08;;
20669;SDS011;10494;50.868;4.180;2023-04-15T00:03:34;4.40;;;3.67;;
20669;SDS011;10494;50.868;4.180;2023-04-15T00:06:00;5.00;;;3.55;;
20669;SDS011;10494;50.868;4.180;2023-04-15T00:08:26;4.72;;;3.50;;
20669;SDS011;10494;50.868;4.180;2023-04-15T00:10:52;4.75;;;3.80;;
20669;SDS011;10494;50.868;4.180;2023-04-15T00:13:17;5.88;;;4.18;;
20669;SDS011;10494;50.868;4.180;2023-04-15T00:15:43;8.32;;;4.32;;
20669;SDS011;10494;50.868;4.180;2023-04-15T00:18:08;5.32;;;4.10;;
20669;SDS011;10494;50.868;4.180;2023-04-15T00:20:34;6.93;;;4.40;;
20669;SDS011;10494;50.868;4.180;2023-04-15T00:23:01;7.82;;;4.60;;
20669;SDS011;10494;50.868;4.180;2023-04-15T00:25:28;6.00;;;3.75;;
20669;SDS011;10494;50.868;4.180;2023-04-15T00:27:53;7.18;;;4.35;;
20669;SDS011;10494;50.868;4.180;2023-04-15T00:30:19;6.63;;;4.57;;
20669;SDS011;10494;50.868;4.180;2023-04-15T00:32:45;6.20;;;3.92;;
20669;SDS011;10494;50.868;4.180;2023-04-15T00:35:10;6.22;;;4.75;;
20669;SDS011;10494;50.868;4.180;2023-04-15T00:37:36;6.15;;;4.22;;
20669;SDS011;10494;50.868;4.180;2023-04-15T00:40:02;9.48;;;5.07;;
20669;SDS011;10494;50.868;4.180;2023-04-15T00:42:30;8.45;;;4.82;;
20669;SDS011;10494;50.868;4.180;2023-04-15T00:44:56;10.57;;;4.50;;
20669;SDS011;10494;50.868;4.180;2023-04-15T00:47:21;9.93;;;4.85;;
20669;SDS011;10494;50.868;4.180;2023-04-15T00:49:47;10.60;;;5.40;;
20669;SDS011;10494;50.868;4.180;2023-04-15T00:52:13;8.20;;;4.90;;
20669;SDS011;10494;50.868;4.180;2023-04-15T00:54:38;9.63;;;5.20;;
20669;SDS011;10494;50.868;4.180;2023-04-15T00:57:07;8.65;;;5.78;;
20669;SDS011;10494;50.868;4.180;2023-04-15T00:59:33;9.67;;;5.53;;
20669;SDS011;10494;50.868;4.180;2023-04-15T01:01:59;8.10;;;5.43;;
20669;SDS011;10494;50.868;4.180;2023-04-15T01:04:25;8.73;;;5.30;;
20669;SDS011;10494;50.868;4.180;2023-04-15T01:06:51;11.27;;;5.73;;
20669;SDS011;10494;50.868;4.180;2023-04-15T01:09:17;8.47;;;5.77;;
20669;SDS011;10494;50.868;4.180;2023-04-15T01:11:42;8.88;;;5.15;;
20669;SDS011;10494;50.868;4.180;2023-04-15T01:14:08;8.75;;;5.35;;
20669;SDS011;10494;50.868;4.180;2023-04-15T01:16:35;12.60;;;5.63;;
20669;SDS011;10494;50.868;4.180;2023-04-15T01:19:04;8.93;;;5.90;;
20669;SDS011;10494;50.868;4.180;2023-04-15T01:21:33;7.07;;;5.20;;
20669;SDS011;10494;50.868;4.180;2023-04-15T01:24:02;7.13;;;5.20;;
20669;SDS011;10494;50.868;4.180;2023-04-15T01:26:33;7.13;;;4.63;;
20669;SDS011;10494;50.868;4.180;2023-04-15T01:28:59;7.50;;;4.73;;
20669;SDS011;10494;50.868;4.180;2023-04-15T01:31:25;8.05;;;4.63;;
20669;SDS011;10494;50.868;4.180;2023-04-15T01:33:51;6.23;;;4.47;;
20669;SDS011;10494;50.868;4.180;2023-04-15T01:36:16;7.10;;;4.40;;
20669;SDS011;10494;50.868;4.180;2023-04-15T01:38:42;6.57;;;4.47;;
20669;SDS011;10494;50.868;4.180;2023-04-15T01:41:08;7.13;;;4.93;;
20669;SDS011;10494;50.868;4.180;2023-04-15T01:43:34;6.90;;;4.93;;
20669;SDS011;10494;50.868;4.180;2023-04-15T01:46:01;7.33;;;5.20;;
20669;SDS011;10494;50.868;4.180;2023-04-15T01:48:27;9.87;;;5.67;;
20669;SDS011;10494;50.868;4.180;2023-04-15T01:50:53;10.07;;;6.07;;
20669;SDS011;10494;50.868;4.180;2023-04-15T01:53:21;8.38;;;5.65;;
20669;SDS011;10494;50.868;4.180;2023-04-15T01:55:46;7.70;;;5.43;;
20669;SDS011;10494;50.868;4.180;2023-04-15T01:58:12;7.13;;;5.20;;
20669;SDS011;10494;50.868;4.180;2023-04-15T02:00:37;9.25;;;5.70;;
20669;SDS011;10494;50.868;4.180;2023-04-15T02:03:03;8.43;;;5.97;;
20669;SDS011;10494;50.868;4.180;2023-04-15T02:05:29;8.93;;;5.47;;
20669;SDS011;10494;50.868;4.180;2023-04-15T02:07:54;7.93;;;5.32;;
20669;SDS011;10494;50.868;4.180;2023-04-15T02:10:21;9.15;;;5.10;;
20669;SDS011;10494;50.868;4.180;2023-04-15T02:12:47;9.82;;;5.50;;
20669;SDS011;10494;50.868;4.180;2023-04-15T02:15:13;9.77;;;5.50;;
20669;SDS011;10494;50.868;4.180;2023-04-15T02:17:38;8.63;;;5.22;;
20669;SDS011;10494;50.868;4.180;2023-04-15T02:20:04;9.30;;;5.10;;
20669;SDS011;10494;50.868;4.180;2023-04-15T02:22:30;8.43;;;5.30;;
20669;SDS011;10494;50.868;4.180;2023-04-15T02:24:56;9.63;;;5.50;;
20669;SDS011;10494;50.868;4.180;2023-04-15T02:27:22;8.30;;;5.73;;
20669;SDS011;10494;50.868;4.180;2023-04-15T02:29:47;5.57;;;4.60;;
20669;SDS011;10494;50.868;4.180;2023-04-15T02:32:15;7.03;;;4.83;;
20669;SDS011;10494;50.868;4.180;2023-04-15T02:34:41;9.40;;;4.97;;
20669;SDS011;10494;50.868;4.180;2023-04-15T02:37:10;9.37;;;5.70;;
20669;SDS011;10494;50.868;4.180;2023-04-15T02:39:37;10.27;;;5.57;;
20669;SDS011;10494;50.868;4.180;2023-04-15T02:42:03;10.00;;;5.50;;
20669;SDS011;10494;50.868;4.180;2023-04-15T02:44:30;11.00;;;6.23;;
20669;SDS011;10494;50.868;4.180;2023-04-15T02:46:56;18.40;;;6.97;;
20669;SDS011;10494;50.868;4.180;2023-04-15T02:49:23;15.30;;;7.32;;
20669;SDS011;10494;50.868;4.180;2023-04-15T02:51:49;13.00;;;7.20;;
20669;SDS011;10494;50.868;4.180;2023-04-15T02:54:15;13.07;;;7.40;;
20669;SDS011;10494;50.868;4.180;2023-04-15T02:56:42;12.97;;;6.93;;
20669;SDS011;10494;50.868;4.180;2023-04-15T02:59:08;17.43;;;7.80;;
20669;SDS011;10494;50.868;4.180;2023-04-15T03:01:33;18.13;;;9.00;;
20669;SDS011;10494;50.868;4.180;2023-04-15T03:03:59;16.67;;;7.80;;
20669;SDS011;10494;50.868;4.180;2023-04-15T03:06:24;17.33;;;8.77;;
20669;SDS011;10494;50.868;4.180;2023-04-15T03:08:51;17.70;;;8.17;;
20669;SDS011;10494;50.868;4.180;2023-04-15T03:11:16;17.67;;;7.80;;
20669;SDS011;10494;50.868;4.180;2023-04-15T03:13:42;13.65;;;8.05;;
20669;SDS011;10494;50.868;4.180;2023-04-15T03:16:08;15.68;;;8.30;;
20669;SDS011;10494;50.868;4.180;2023-04-15T03:18:34;17.97;;;8.37;;
20669;SDS011;10494;50.868;4.180;2023-04-15T03:21:00;17.60;;;8.13;;
20669;SDS011;10494;50.868;4.180;2023-04-15T03:23:26;16.30;;;8.93;;
20669;SDS011;10494;50.868;4.180;2023-04-15T03:25:52;18.20;;;9.23;;
20669;SDS011;10494;50.868;4.180;2023-04-15T03:28:19;15.73;;;8.70;;
20669;SDS011;10494;50.868;4.180;2023-04-15T03:30:45;17.63;;;10.17;;
20669;SDS011;10494;50.868;4.180;2023-04-15T03:33:11;18.83;;;9.37;;
20669;SDS011;10494;50.868;4.180;2023-04-15T03:35:36;20.17;;;9.87;;
20669;SDS011;10494;50.868;4.180;2023-04-15T03:38:02;20.27;;;10.00;;
20669;SDS011;10494;50.868;4.180;2023-04-15T03:40:28;19.43;;;9.47;;
20669;SDS011;10494;50.868;4.180;2023-04-15T03:42:53;17.17;;;9.03;;
20669;SDS011;10494;50.868;4.180;2023-04-15T03:45:19;19.70;;;9.50;;
20669;SDS011;10494;50.868;4.180;2023-04-15T03:47:45;19.20;;;9.77;;
20669;SDS011;10494;50.868;4.180;2023-04-15T03:50:11;19.10;;;9.43;;
20669;SDS011;10494;50.868;4.180;2023-04-15T03:52:36;19.57;;;8.93;;
20669;SDS011;10494;50.868;4.180;2023-04-15T03:55:02;19.27;;;8.50;;
20669;SDS011;10494;50.868;4.180;2023-04-15T03:57:28;15.00;;;7.77;;
20669;SDS011;10494;50.868;4.180;2023-04-15T03:59:53;17.57;;;7.73;;
20669;SDS011;10494;50.868;4.180;2023-04-15T04:02:19;14.17;;;7.97;;
20669;SDS011;10494;50.868;4.180;2023-04-15T04:04:45;15.33;;;8.63;;
20669;SDS011;10494;50.868;4.180;2023-04-15T04:07:14;17.03;;;8.83;;
20669;SDS011;10494;50.868;4.180;2023-04-15T04:09:40;15.60;;;8.03;;
20669;SDS011;10494;50.868;4.180;2023-04-15T04:12:06;15.67;;;8.83;;
20669;SDS011;10494;50.868;4.180;2023-04-15T04:14:32;19.07;;;9.37;;
20669;SDS011;10494;50.868;4.180;2023-04-15T04:16:58;21.47;;;9.37;;
20669;SDS011;10494;50.868;4.180;2023-04-15T04:19:24;13.87;;;8.63;;
20669;SDS011;10494;50.868;4.180;2023-04-15T04:21:50;17.93;;;9.97;;
20669;SDS011;10494;50.868;4.180;2023-04-15T04:24:16;16.57;;;9.93;;
20669;SDS011;10494;50.868;4.180;2023-04-15T04:26:41;17.13;;;9.87;;
20669;SDS011;10494;50.868;4.180;2023-04-15T04:29:07;14.17;;;9.93;;
20669;SDS011;10494;50.868;4.180;2023-04-15T04:31:32;18.57;;;9.60;;
20669;SDS011;10494;50.868;4.180;2023-04-15T04:33:58;16.80;;;11.10;;
20669;SDS011;10494;50.868;4.180;2023-04-15T04:36:23;15.57;;;10.10;;
20669;SDS011;10494;50.868;4.180;2023-04-15T04:38:50;18.10;;;10.90;;
20669;SDS011;10494;50.868;4.180;2023-04-15T04:41:16;17.77;;;10.90;;
20669;SDS011;10494;50.868;4.180;2023-04-15T04:43:42;17.90;;;11.23;;
20669;SDS011;10494;50.868;4.180;2023-04-15T04:46:07;16.90;;;11.10;;
20669;SDS011;10494;50.868;4.180;2023-04-15T04:48:34;18.20;;;11.47;;
20669;SDS011;10494;50.868;4.180;2023-04-15T04:51:00;16.17;;;10.87;;
20669;SDS011;10494;50.868;4.180;2023-04-15T04:53:26;16.97;;;11.47;;
20669;SDS011;10494;50.868;4.180;2023-04-15T04:55:52;21.93;;;12.07;;
20669;SDS011;10494;50.868;4.180;2023-04-15T04:58:17;19.80;;;11.57;;
20669;SDS011;10494;50.868;4.180;2023-04-15T05:00:43;19.67;;;12.43;;
20669;SDS011;10494;50.868;4.180;2023-04-15T05:03:09;24.17;;;12.90;;
20669;SDS011;10494;50.868;4.180;2023-04-15T05:05:34;23.17;;;12.63;;
20669;SDS011;10494;50.868;4.180;2023-04-15T05:08:03;19.60;;;12.53;;
20669;SDS011;10494;50.868;4.180;2023-04-15T05:10:29;20.87;;;12.00;;
20669;SDS011;10494;50.868;4.180;2023-04-15T05:12:55;21.67;;;12.73;;
20669;SDS011;10494;50.868;4.180;2023-04-15T05:15:21;22.43;;;13.23;;
20669;SDS011;10494;50.868;4.180;2023-04-15T05:17:47;24.57;;;12.10;;
20669;SDS011;10494;50.868;4.180;2023-04-15T05:20:12;22.43;;;12.90;;
20669;SDS011;10494;50.868;4.180;2023-04-15T05:22:38;21.43;;;12.20;;
20669;SDS011;10494;50.868;4.180;2023-04-15T05:25:04;19.93;;;13.10;;
20669;SDS011;10494;50.868;4.180;2023-04-15T05:27:29;18.40;;;11.73;;
20669;SDS011;10494;50.868;4.180;2023-04-15T05:29:55;23.50;;;13.00;;
20669;SDS011;10494;50.868;4.180;2023-04-15T05:32:21;20.67;;;12.10;;
20669;SDS011;10494;50.868;4.180;2023-04-15T05:34:46;21.10;;;12.53;;
20669;SDS011;10494;50.868;4.180;2023-04-15T05:37:12;18.50;;;10.93;;
20669;SDS011;10494;50.868;4.180;2023-04-15T05:39:37;18.10;;;10.83;;
20669;SDS011;10494;50.868;4.180;2023-04-15T05:42:03;19.30;;;10.30;;
20669;SDS011;10494;50.868;4.180;2023-04-15T05:44:30;16.70;;;10.05;;
20669;SDS011;10494;50.868;4.180;2023-04-15T05:46:55;18.17;;;10.43;;
20669;SDS011;10494;50.868;4.180;2023-04-15T05:49:21;16.92;;;9.85;;
20669;SDS011;10494;50.868;4.180;2023-04-15T05:51:47;14.37;;;9.47;;
20669;SDS011;10494;50.868;4.180;2023-04-15T05:54:13;19.10;;;9.40;;
20669;SDS011;10494;50.868;4.180;2023-04-15T05:56:38;15.83;;;9.50;;
20669;SDS011;10494;50.868;4.180;2023-04-15T05:59:04;16.85;;;8.38;;
20669;SDS011;10494;50.868;4.180;2023-04-15T06:01:30;18.00;;;8.70;;
20669;SDS011;10494;50.868;4.180;2023-04-15T06:03:57;14.57;;;8.63;;
20669;SDS011;10494;50.868;4.180;2023-04-15T06:06:23;21.07;;;8.67;;
20669;SDS011;10494;50.868;4.180;2023-04-15T06:08:49;16.73;;;8.85;;
20669;SDS011;10494;50.868;4.180;2023-04-15T06:11:14;13.60;;;8.30;;
20669;SDS011;10494;50.868;4.180;2023-04-15T06:13:40;12.53;;;9.10;;
20669;SDS011;10494;50.868;4.180;2023-04-15T06:16:06;14.97;;;9.27;;
20669;SDS011;10494;50.868;4.180;2023-04-15T06:18:32;13.50;;;9.68;;
20669;SDS011;10494;50.868;4.180;2023-04-15T06:20:57;16.80;;;9.07;;
20669;SDS011;10494;50.868;4.180;2023-04-15T06:23:23;19.50;;;10.90;;
20669;SDS011;10494;50.868;4.180;2023-04-15T06:25:49;13.80;;;8.88;;
20669;SDS011;10494;50.868;4.180;2023-04-15T06:28:14;15.70;;;8.20;;
20669;SDS011;10494;50.868;4.180;2023-04-15T06:30:40;15.48;;;7.57;;
20669;SDS011;10494;50.868;4.180;2023-04-15T06:33:06;17.67;;;8.23;;
20669;SDS011;10494;50.868;4.180;2023-04-15T06:35:31;14.43;;;8.05;;
20669;SDS011;10494;50.868;4.180;2023-04-15T06:37:57;14.23;;;7.75;;
20669;SDS011;10494;50.868;4.180;2023-04-15T06:40:22;14.80;;;7.90;;
20669;SDS011;10494;50.868;4.180;2023-04-15T06:42:48;13.98;;;7.65;;
20669;SDS011;10494;50.868;4.180;2023-04-15T06:45:14;14.15;;;7.95;;
20669;SDS011;10494;50.868;4.180;2023-04-15T06:47:40;15.63;;;8.48;;
20669;SDS011;10494;50.868;4.180;2023-04-15T06:50:06;13.77;;;7.55;;
20669;SDS011;10494;50.868;4.180;2023-04-15T06:52:33;9.85;;;6.88;;
20669;SDS011;10494;50.868;4.180;2023-04-15T06:54:59;14.15;;;6.72;;
20669;SDS011;10494;50.868;4.180;2023-04-15T06:57:26;12.43;;;6.63;;
20669;SDS011;10494;50.868;4.180;2023-04-15T06:59:52;10.70;;;6.20;;
20669;SDS011;10494;50.868;4.180;2023-04-15T07:02:18;12.13;;;6.30;;
20669;SDS011;10494;50.868;4.180;2023-04-15T07:04:44;10.20;;;6.50;;
20669;SDS011;10494;50.868;4.180;2023-04-15T07:07:10;11.45;;;6.47;;
20669;SDS011;10494;50.868;4.180;2023-04-15T07:09:36;11.57;;;6.80;;
20669;SDS011;10494;50.868;4.180;2023-04-15T07:12:02;8.52;;;6.15;;
20669;SDS011;10494;50.868;4.180;2023-04-15T07:14:28;10.65;;;6.35;;
20669;SDS011;10494;50.868;4.180;2023-04-15T07:16:54;9.10;;;6.03;;
20669;SDS011;10494;50.868;4.180;2023-04-15T07:19:20;10.32;;;6.50;;
20669;SDS011;10494;50.868;4.180;2023-04-15T07:21:46;13.75;;;5.88;;
20669;SDS011;10494;50.868;4.180;2023-04-15T07:24:11;16.63;;;7.68;;
20669;SDS011;10494;50.868;4.180;2023-04-15T07:26:40;11.15;;;6.60;;
20669;SDS011;10494;50.868;4.180;2023-04-15T07:29:06;11.38;;;6.28;;
20669;SDS011;10494;50.868;4.180;2023-04-15T07:31:31;13.45;;;6.97;;
20669;SDS011;10494;50.868;4.180;2023-04-15T07:33:57;14.55;;;7.75;;
20669;SDS011;10494;50.868;4.180;2023-04-15T07:36:23;11.90;;;7.07;;
20669;SDS011;10494;50.868;4.180;2023-04-15T07:38:49;11.50;;;6.80;;
20669;SDS011;10494;50.868;4.180;2023-04-15T07:41:14;15.73;;;7.68;;
20669;SDS011;10494;50.868;4.180;2023-04-15T07:43:40;14.20;;;7.55;;
20669;SDS011;10494;50.868;4.180;2023-04-15T07:46:06;13.75;;;7.50;;
20669;SDS011;10494;50.868;4.180;2023-04-15T07:48:32;11.50;;;6.57;;
20669;SDS011;10494;50.868;4.180;2023-04-15T07:50:58;14.82;;;6.90;;
20669;SDS011;10494;50.868;4.180;2023-04-15T07:53:24;10.70;;;6.88;;
20669;SDS011;10494;50.868;4.180;2023-04-15T07:55:50;19.00;;;7.25;;
20669;SDS011;10494;50.868;4.180;2023-04-15T07:58:15;14.20;;;7.65;;
20669;SDS011;10494;50.868;4.180;2023-04-15T08:00:41;13.25;;;7.55;;
20669;SDS011;10494;50.868;4.180;2023-04-15T08:03:06;13.35;;;7.75;;
20669;SDS011;10494;50.868;4.180;2023-04-15T08:05:32;13.57;;;8.38;;
20669;SDS011;10494;50.868;4.180;2023-04-15T08:07:58;13.15;;;8.30;;
20669;SDS011;10494;50.868;4.180;2023-04-15T08:10:23;19.45;;;9.88;;
20669;SDS011;10494;50.868;4.180;2023-04-15T08:12:49;15.98;;;8.98;;
20669;SDS011;10494;50.868;4.180;2023-04-15T08:15:18;21.70;;;9.43;;
20669;SDS011;10494;50.868;4.180;2023-04-15T08:17:44;18.08;;;9.55;;
20669;SDS011;10494;50.868;4.180;2023-04-15T08:20:10;18.08;;;9.45;;
20669;SDS011;10494;50.868;4.180;2023-04-15T08:22:37;23.77;;;9.90;;
20669;SDS011;10494;50.868;4.180;2023-04-15T08:25:03;13.95;;;9.27;;
20669;SDS011;10494;50.868;4.180;2023-04-15T08:27:29;17.58;;;9.15;;
20669;SDS011;10494;50.868;4.180;2023-04-15T08:29:55;15.25;;;9.73;;
20669;SDS011;10494;50.868;4.180;2023-04-15T08:32:20;17.42;;;9.63;;
20669;SDS011;10494;50.868;4.180;2023-04-15T08:34:46;13.82;;;8.30;;
20669;SDS011;10494;50.868;4.180;2023-04-15T08:37:12;15.77;;;8.05;;
20669;SDS011;10494;50.868;4.180;2023-04-15T08:39:38;17.08;;;8.75;;
20669;SDS011;10494;50.868;4.180;2023-04-15T08:42:04;14.30;;;8.93;;
20669;SDS011;10494;50.868;4.180;2023-04-15T08:44:36;16.15;;;9.23;;
20669;SDS011;10494;50.868;4.180;2023-04-15T08:47:02;13.88;;;9.35;;
20669;SDS011;10494;50.868;4.180;2023-04-15T08:49:31;14.80;;;9.43;;
20669;SDS011;10494;50.868;4.180;2023-04-15T08:51:59;17.10;;;9.45;;
20669;SDS011;10494;50.868;4.180;2023-04-15T08:54:26;15.57;;;9.23;;
20669;SDS011;10494;50.868;4.180;2023-04-15T08:56:52;14.88;;;9.60;;
20669;SDS011;10494;50.868;4.180;2023-04-15T08:59:18;18.27;;;10.02;;
20669;SDS011;10494;50.868;4.180;2023-04-15T09:01:46;15.30;;;9.15;;
20669;SDS011;10494;50.868;4.180;2023-04-15T09:04:12;19.98;;;9.38;;
20669;SDS011;10494;50.868;4.180;2023-04-15T09:06:38;17.35;;;9.60;;
20669;SDS011;10494;50.868;4.180;2023-04-15T09:09:04;33.92;;;22.15;;
20669;SDS011;10494;50.868;4.180;2023-04-15T09:11:30;21.05;;;10.38;;
20669;SDS011;10494;50.868;4.180;2023-04-15T09:13:56;16.27;;;9.18;;
20669;SDS011;10494;50.868;4.180;2023-04-15T09:16:21;18.15;;;9.68;;
20669;SDS011;10494;50.868;4.180;2023-04-15T09:18:47;15.77;;;10.45;;
20669;SDS011;10494;50.868;4.180;2023-04-15T09:21:16;15.45;;;9.63;;
20669;SDS011;10494;50.868;4.180;2023-04-15T09:23:58;15.10;;;9.88;;
20669;SDS011;10494;50.868;4.180;2023-04-15T09:26:35;18.88;;;10.13;;
20669;SDS011;10494;50.868;4.180;2023-04-15T09:29:05;16.77;;;9.52;;
20669;SDS011;10494;50.868;4.180;2023-04-15T09:31:32;14.13;;;9.00;;
20669;SDS011;10494;50.868;4.180;2023-04-15T09:33:57;13.57;;;9.18;;
20669;SDS011;10494;50.868;4.180;2023-04-15T09:36:23;15.32;;;9.45;;
20669;SDS011;10494;50.868;4.180;2023-04-15T09:38:58;13.57;;;8.75;;
20669;SDS011;10494;50.868;4.180;2023-04-15T09:41:25;14.20;;;9.02;;
20669;SDS011;10494;50.868;4.180;2023-04-15T09:43:51;15.77;;;9.00;;
20669;SDS011;10494;50.868;4.180;2023-04-15T09:46:17;14.38;;;7.72;;
20669;SDS011;10494;50.868;4.180;2023-04-15T09:48:42;12.70;;;6.70;;
20669;SDS011;10494;50.868;4.180;2023-04-15T09:51:08;10.00;;;6.05;;
20669;SDS011;10494;50.868;4.180;2023-04-15T09:53:35;10.20;;;5.97;;
20669;SDS011;10494;50.868;4.180;2023-04-15T09:56:02;10.40;;;6.05;;
20669;SDS011;10494;50.868;4.180;2023-04-15T09:58:32;8.27;;;5.82;;
20669;SDS011;10494;50.868;4.180;2023-04-15T10:00:59;12.57;;;6.70;;
20669;SDS011;10494;50.868;4.180;2023-04-15T10:03:27;12.65;;;6.05;;
20669;SDS011;10494;50.868;4.180;2023-04-15T10:05:56;6.35;;;5.40;;
20669;SDS011;10494;50.868;4.180;2023-04-15T10:08:24;12.55;;;6.30;;
20669;SDS011;10494;50.868;4.180;2023-04-15T10:10:52;8.82;;;5.13;;
20669;SDS011;10494;50.868;4.180;2023-04-15T10:13:22;10.88;;;6.45;;
20669;SDS011;10494;50.868;4.180;2023-04-15T10:15:50;17.15;;;5.90;;
20669;SDS011;10494;50.868;4.180;2023-04-15T10:18:16;8.95;;;5.88;;
20669;SDS011;10494;50.868;4.180;2023-04-15T10:20:45;12.93;;;6.53;;
20669;SDS011;10494;50.868;4.180;2023-04-15T10:23:11;11.35;;;6.68;;
20669;SDS011;10494;50.868;4.180;2023-04-15T10:25:37;10.68;;;6.80;;
20669;SDS011;10494;50.868;4.180;2023-04-15T10:28:03;8.57;;;5.32;;
20669;SDS011;10494;50.868;4.180;2023-04-15T10:30:31;8.73;;;5.85;;
20669;SDS011;10494;50.868;4.180;2023-04-15T10:32:57;10.02;;;6.35;;
20669;SDS011;10494;50.868;4.180;2023-04-15T10:35:24;9.55;;;5.32;;
20669;SDS011;10494;50.868;4.180;2023-04-15T10:37:50;8.93;;;4.35;;
20669;SDS011;10494;50.868;4.180;2023-04-15T10:40:29;8.07;;;4.47;;
20669;SDS011;10494;50.868;4.180;2023-04-15T10:42:59;11.82;;;4.88;;
20669;SDS011;10494;50.868;4.180;2023-04-15T10:45:26;6.38;;;4.18;;
20669;SDS011;10494;50.868;4.180;2023-04-15T10:47:56;6.75;;;4.28;;
20669;SDS011;10494;50.868;4.180;2023-04-15T10:50:26;7.57;;;4.75;;
20669;SDS011;10494;50.868;4.180;2023-04-15T10:52:54;7.65;;;4.57;;
20669;SDS011;10494;50.868;4.180;2023-04-15T10:55:22;8.50;;;5.43;;
20669;SDS011;10494;50.868;4.180;2023-04-15T10:57:52;8.35;;;5.20;;
20669;SDS011;10494;50.868;4.180;2023-04-15T11:00:20;6.97;;;4.90;;
20669;SDS011;10494;50.868;4.180;2023-04-15T11:05:18;10.35;;;4.85;;
20669;SDS011;10494;50.868;4.180;2023-04-15T11:07:47;6.97;;;4.15;;
20669;SDS011;10494;50.868;4.180;2023-04-15T11:12:45;9.55;;;4.47;;
20669;SDS011;10494;50.868;4.180;2023-04-15T11:18:08;7.18;;;3.25;;
20669;SDS011;10494;50.868;4.180;2023-04-15T11:20:41;6.63;;;3.38;;
20669;SDS011;10494;50.868;4.180;2023-04-15T11:23:11;5.93;;;3.45;;
20669;SDS011;10494;50.868;4.180;2023-04-15T11:25:38;4.63;;;3.10;;
20669;SDS011;10494;50.868;4.180;2023-04-15T11:28:04;4.38;;;3.17;;
20669;SDS011;10494;50.868;4.180;2023-04-15T11:30:30;5.63;;;2.90;;
20669;SDS011;10494;50.868;4.180;2023-04-15T11:33:02;5.47;;;2.90;;
20669;SDS011;10494;50.868;4.180;2023-04-15T11:35:29;6.32;;;2.78;;
20669;SDS011;10494;50.868;4.180;2023-04-15T11:37:55;4.70;;;3.58;;
20669;SDS011;10494;50.868;4.180;2023-04-15T11:40:21;5.72;;;3.15;;
20669;SDS011;10494;50.868;4.180;2023-04-15T11:43:06;6.30;;;3.38;;
20669;SDS011;10494;50.868;4.180;2023-04-15T11:45:36;5.72;;;3.65;;
20669;SDS011;10494;50.868;4.180;2023-04-15T11:48:12;5.28;;;2.97;;
20669;SDS011;10494;50.868;4.180;2023-04-15T11:50:39;7.07;;;3.42;;
20669;SDS011;10494;50.868;4.180;2023-04-15T11:53:05;3.60;;;3.03;;
20669;SDS011;10494;50.868;4.180;2023-04-15T11:55:48;6.85;;;4.07;;
20669;SDS011;10494;50.868;4.180;2023-04-15T11:58:19;5.80;;;3.08;;
20669;SDS011;10494;50.868;4.180;2023-04-15T12:00:57;6.30;;;3.28;;
20669;SDS011;10494;50.868;4.180;2023-04-15T12:03:40;4.93;;;3.20;;
20669;SDS011;10494;50.868;4.180;2023-04-15T12:06:17;7.82;;;3.85;;
20669;SDS011;10494;50.868;4.180;2023-04-15T12:11:16;4.70;;;3.20;;
20669;SDS011;10494;50.868;4.180;2023-04-15T12:13:43;4.57;;;2.30;;
20669;SDS011;10494;50.868;4.180;2023-04-15T12:16:12;4.75;;;2.28;;
20669;SDS011;10494;50.868;4.180;2023-04-15T12:18:40;3.15;;;2.50;;
20669;SDS011;10494;50.868;4.180;2023-04-15T12:21:09;9.70;;;3.78;;
20669;SDS011;10494;50.868;4.180;2023-04-15T12:23:36;6.25;;;3.60;;
20669;SDS011;10494;50.868;4.180;2023-04-15T12:26:05;5.43;;;3.58;;
20669;SDS011;10494;50.868;4.180;2023-04-15T12:28:33;5.20;;;2.80;;
20669;SDS011;10494;50.868;4.180;2023-04-15T12:31:05;5.40;;;2.83;;
20669;SDS011;10494;50.868;4.180;2023-04-15T12:33:33;4.15;;;2.72;;
20669;SDS011;10494;50.868;4.180;2023-04-15T12:35:59;5.40;;;2.53;;
20669;SDS011;10494;50.868;4.180;2023-04-15T12:38:24;3.85;;;2.60;;
20669;SDS011;10494;50.868;4.180;2023-04-15T12:40:50;4.15;;;2.78;;
20669;SDS011;10494;50.868;4.180;2023-04-15T12:43:16;3.88;;;2.47;;
20669;SDS011;10494;50.868;4.180;2023-04-15T12:45:41;3.95;;;2.63;;
20669;SDS011;10494;50.868;4.180;2023-04-15T12:48:07;7.50;;;2.80;;
20669;SDS011;10494;50.868;4.180;2023-04-15T12:50:33;6.38;;;2.60;;
20669;SDS011;10494;50.868;4.180;2023-04-15T12:53:00;5.43;;;3.08;;
20669;SDS011;10494;50.868;4.180;2023-04-15T12:55:25;5.15;;;2.80;;
20669;SDS011;10494;50.868;4.180;2023-04-15T12:57:51;5.78;;;2.92;;
20669;SDS011;10494;50.868;4.180;2023-04-15T13:00:17;7.20;;;3.45;;
20669;SDS011;10494;50.868;4.180;2023-04-15T13:02:43;6.97;;;3.50;;
20669;SDS011;10494;50.868;4.180;2023-04-15T13:05:08;5.03;;;3.55;;
20669;SDS011;10494;50.868;4.180;2023-04-15T13:07:35;5.13;;;3.50;;
20669;SDS011;10494;50.868;4.180;2023-04-15T13:10:00;4.40;;;3.15;;
20669;SDS011;10494;50.868;4.180;2023-04-15T13:12:26;7.03;;;3.25;;
20669;SDS011;10494;50.868;4.180;2023-04-15T13:14:52;6.57;;;3.38;;
20669;SDS011;10494;50.868;4.180;2023-04-15T13:17:17;4.82;;;3.35;;
20669;SDS011;10494;50.868;4.180;2023-04-15T13:19:44;5.60;;;3.30;;
20669;SDS011;10494;50.868;4.180;2023-04-15T13:22:10;8.15;;;3.05;;
20669;SDS011;10494;50.868;4.180;2023-04-15T13:24:36;7.32;;;3.42;;
20669;SDS011;10494;50.868;4.180;2023-04-15T13:27:03;5.93;;;3.53;;
20669;SDS011;10494;50.868;4.180;2023-04-15T13:29:29;3.17;;;2.22;;
20669;SDS011;10494;50.868;4.180;2023-04-15T13:31:54;4.70;;;2.97;;
20669;SDS011;10494;50.868;4.180;2023-04-15T13:34:20;6.97;;;3.08;;
20669;SDS011;10494;50.868;4.180;2023-04-15T13:36:46;6.07;;;3.33;;
20669;SDS011;10494;50.868;4.180;2023-04-15T13:39:11;3.63;;;2.58;;
20669;SDS011;10494;50.868;4.180;2023-04-15T13:41:38;11.20;;;3.70;;
20669;SDS011;10494;50.868;4.180;2023-04-15T13:44:04;6.05;;;3.08;;
20669;SDS011;10494;50.868;4.180;2023-04-15T13:46:30;7.15;;;3.13;;
20669;SDS011;10494;50.868;4.180;2023-04-15T13:48:55;6.80;;;3.45;;
20669;SDS011;10494;50.868;4.180;2023-04-15T13:51:21;6.18;;;3.25;;
20669;SDS011;10494;50.868;4.180;2023-04-15T13:53:46;6.30;;;3.17;;
20669;SDS011;10494;50.868;4.180;2023-04-15T13:56:12;7.43;;;3.03;;
20669;SDS011;10494;50.868;4.180;2023-04-15T13:58:39;5.68;;;3.20;;
20669;SDS011;10494;50.868;4.180;2023-04-15T14:01:04;5.07;;;3.55;;
20669;SDS011;10494;50.868;4.180;2023-04-15T14:03:30;10.95;;;4.53;;
20669;SDS011;10494;50.868;4.180;2023-04-15T14:05:56;9.80;;;3.47;;
20669;SDS011;10494;50.868;4.180;2023-04-15T14:08:22;5.35;;;3.20;;
20669;SDS011;10494;50.868;4.180;2023-04-15T14:10:49;6.05;;;2.78;;
20669;SDS011;10494;50.868;4.180;2023-04-15T14:13:15;5.82;;;3.25;;
20669;SDS011;10494;50.868;4.180;2023-04-15T14:15:41;5.95;;;2.72;;
20669;SDS011;10494;50.868;4.180;2023-04-15T14:18:06;6.50;;;3.08;;
20669;SDS011;10494;50.868;4.180;2023-04-15T14:20:32;4.28;;;2.63;;
20669;SDS011;10494;50.868;4.180;2023-04-15T14:22:57;5.30;;;2.22;;
20669;SDS011;10494;50.868;4.180;2023-04-15T14:25:23;3.05;;;1.90;;
20669;SDS011;10494;50.868;4.180;2023-04-15T14:27:51;5.95;;;2.25;;
20669;SDS011;10494;50.868;4.180;2023-04-15T14:30:16;6.70;;;2.78;;
20669;SDS011;10494;50.868;4.180;2023-04-15T14:32:42;5.05;;;2.53;;
20669;SDS011;10494;50.868;4.180;2023-04-15T14:35:07;4.88;;;2.30;;
20669;SDS011;10494;50.868;4.180;2023-04-15T14:37:33;6.22;;;2.63;;
20669;SDS011;10494;50.868;4.180;2023-04-15T14:39:58;3.60;;;2.60;;
20669;SDS011;10494;50.868;4.180;2023-04-15T14:42:24;5.70;;;2.60;;
20669;SDS011;10494;50.868;4.180;2023-04-15T14:44:50;5.15;;;2.60;;